sensor_id;sensor_type;location;lat;lon;timestamp;pressure;altitude;pressure_sealevel;temperature;humidity
62436;BME280;48480;50.252;18.848;2022-12-18T00:01:27;100130.52;;;-2.82;72.50
62436;BME280;48480;50.252;18.848;2022-12-18T00:03:53;100132.38;;;-2.90;72.67
62436;BME280;48480;50.252;18.848;2022-12-18T00:06:20;100137.00;;;-2.88;73.14
62436;BME280;48480;50.252;18.848;2022-12-18T00:08:46;100134.91;;;-2.83;73.15
62436;BME280;48480;50.252;18.848;2022-12-18T00:11:17;100138.23;;;-2.79;72.98
62436;BME280;48480;50.252;18.848;2022-12-18T00:13:44;100139.29;;;-2.86;72.61
62436;BME280;48480;50.252;18.848;2022-12-18T00:16:13;100142.06;;;-2.87;73.04
62436;BME280;48480;50.252;18.848;2022-12-18T00:18:39;100143.64;;;-2.83;73.33
62436;BME280;48480;50.252;18.848;2022-12-18T00:21:07;100146.79;;;-2.76;72.89
62436;BME280;48480;50.252;18.848;2022-12-18T00:23:34;100151.38;;;-2.73;72.65
62436;BME280;48480;50.252;18.848;2022-12-18T00:26:05;100154.82;;;-2.76;72.81
62436;BME280;48480;50.252;18.848;2022-12-18T00:28:34;100155.96;;;-2.72;72.93
62436;BME280;48480;50.252;18.848;2022-12-18T00:31:05;100156.09;;;-2.71;72.79
62436;BME280;48480;50.252;18.848;2022-12-18T00:33:31;100160.65;;;-2.67;72.56
62436;BME280;48480;50.252;18.848;2022-12-18T00:36:01;100155.51;;;-2.64;72.57
62436;BME280;48480;50.252;18.848;2022-12-18T00:38:26;100159.68;;;-2.62;72.36
62436;BME280;48480;50.252;18.848;2022-12-18T00:40:52;100162.27;;;-2.66;72.41
62436;BME280;48480;50.252;18.848;2022-12-18T00:43:17;100167.73;;;-2.66;72.74
62436;BME280;48480;50.252;18.848;2022-12-18T00:45:43;100175.77;;;-2.66;72.54
62436;BME280;48480;50.252;18.848;2022-12-18T00:48:08;100183.42;;;-2.65;72.65
62436;BME280;48480;50.252;18.848;2022-12-18T00:50:33;100185.04;;;-2.65;72.78
62436;BME280;48480;50.252;18.848;2022-12-18T00:52:59;100174.15;;;-2.70;72.35
62436;BME280;48480;50.252;18.848;2022-12-18T00:55:24;100184.36;;;-2.62;72.36
62436;BME280;48480;50.252;18.848;2022-12-18T00:57:51;100185.77;;;-2.61;72.02
62436;BME280;48480;50.252;18.848;2022-12-18T01:00:17;100187.70;;;-2.62;71.95
62436;BME280;48480;50.252;18.848;2022-12-18T01:02:43;100191.84;;;-2.64;71.99
62436;BME280;48480;50.252;18.848;2022-12-18T01:05:10;100201.25;;;-2.64;72.05
62436;BME280;48480;50.252;18.848;2022-12-18T01:07:36;100199.28;;;-2.64;71.84
62436;BME280;48480;50.252;18.848;2022-12-18T01:10:02;100203.95;;;-2.65;71.73
62436;BME280;48480;50.252;18.848;2022-12-18T01:12:27;100209.23;;;-2.63;72.02
62436;BME280;48480;50.252;18.848;2022-12-18T01:14:52;100206.95;;;-2.65;71.67
62436;BME280;48480;50.252;18.848;2022-12-18T01:17:18;100205.85;;;-2.66;71.86
62436;BME280;48480;50.252;18.848;2022-12-18T01:19:43;100205.30;;;-2.64;71.85
62436;BME280;48480;50.252;18.848;2022-12-18T01:22:09;100202.09;;;-2.62;72.01
62436;BME280;48480;50.252;18.848;2022-12-18T01:24:34;100203.55;;;-2.59;71.87
62436;BME280;48480;50.252;18.848;2022-12-18T01:27:00;100204.77;;;-2.57;71.71
62436;BME280;48480;50.252;18.848;2022-12-18T01:29:25;100207.54;;;-2.55;71.65
62436;BME280;48480;50.252;18.848;2022-12-18T01:31:50;100209.24;;;-2.55;71.62
62436;BME280;48480;50.252;18.848;2022-12-18T01:34:16;100210.64;;;-2.53;71.41
62436;BME280;48480;50.252;18.848;2022-12-18T01:36:42;100208.57;;;-2.54;71.20
62436;BME280;48480;50.252;18.848;2022-12-18T01:39:11;100210.77;;;-2.56;71.28
62436;BME280;48480;50.252;18.848;2022-12-18T01:41:38;100209.73;;;-2.58;71.30
62436;BME280;48480;50.252;18.848;2022-12-18T01:50:12;100223.52;;;-2.66;71.61
62436;BME280;48480;50.252;18.848;2022-12-18T01:52:39;100221.80;;;-2.70;71.78
62436;BME280;48480;50.252;18.848;2022-12-18T01:55:07;100229.25;;;-2.70;71.97
62436;BME280;48480;50.252;18.848;2022-12-18T01:57:33;100230.45;;;-2.71;71.87
62436;BME280;48480;50.252;18.848;2022-12-18T02:00:05;100238.48;;;-2.72;72.00
62436;BME280;48480;50.252;18.848;2022-12-18T02:02:32;100241.70;;;-2.73;71.98
62436;BME280;48480;50.252;18.848;2022-12-18T02:04:58;100243.44;;;-2.74;72.03
62436;BME280;48480;50.252;18.848;2022-12-18T02:10:20;100254.20;;;-2.79;71.93
62436;BME280;48480;50.252;18.848;2022-12-18T02:13:25;100259.01;;;-2.83;72.15
62436;BME280;48480;50.252;18.848;2022-12-18T02:19:00;100259.84;;;-2.83;72.06
62436;BME280;48480;50.252;18.848;2022-12-18T02:21:40;100263.20;;;-2.86;72.44
62436;BME280;48480;50.252;18.848;2022-12-18T02:27:06;100271.33;;;-2.89;72.47
62436;BME280;48480;50.252;18.848;2022-12-18T02:31:59;100281.36;;;-2.88;72.37
62436;BME280;48480;50.252;18.848;2022-12-18T02:34:31;100276.04;;;-2.91;72.44
62436;BME280;48480;50.252;18.848;2022-12-18T02:37:00;100277.66;;;-2.97;72.56
62436;BME280;48480;50.252;18.848;2022-12-18T02:39:29;100276.65;;;-3.03;72.92
62436;BME280;48480;50.252;18.848;2022-12-18T02:41:56;100276.66;;;-3.08;73.00
62436;BME280;48480;50.252;18.848;2022-12-18T02:44:22;100281.15;;;-3.10;73.24
62436;BME280;48480;50.252;18.848;2022-12-18T02:46:52;100282.63;;;-3.16;73.45
62436;BME280;48480;50.252;18.848;2022-12-18T02:49:36;100290.55;;;-3.15;73.43
62436;BME280;48480;50.252;18.848;2022-12-18T02:52:28;100293.45;;;-3.14;73.46
62436;BME280;48480;50.252;18.848;2022-12-18T02:57:54;100308.23;;;-3.16;73.26
62436;BME280;48480;50.252;18.848;2022-12-18T03:00:23;100317.23;;;-3.18;73.44
62436;BME280;48480;50.252;18.848;2022-12-18T03:02:59;100323.94;;;-3.20;73.27
62436;BME280;48480;50.252;18.848;2022-12-18T03:05:38;100325.11;;;-3.25;73.50
62436;BME280;48480;50.252;18.848;2022-12-18T03:08:10;100326.16;;;-3.29;73.42
62436;BME280;48480;50.252;18.848;2022-12-18T03:10:45;100327.55;;;-3.36;73.46
62436;BME280;48480;50.252;18.848;2022-12-18T03:13:28;100324.77;;;-3.42;73.82
62436;BME280;48480;50.252;18.848;2022-12-18T03:15:59;100327.43;;;-3.41;74.15
62436;BME280;48480;50.252;18.848;2022-12-18T03:18:37;100323.45;;;-3.37;74.09
62436;BME280;48480;50.252;18.848;2022-12-18T03:21:06;100327.13;;;-3.31;73.97
62436;BME280;48480;50.252;18.848;2022-12-18T03:23:35;100325.33;;;-3.24;73.90
62436;BME280;48480;50.252;18.848;2022-12-18T03:26:07;100328.30;;;-3.18;73.79
62436;BME280;48480;50.252;18.848;2022-12-18T03:28:38;100331.11;;;-3.14;73.63
62436;BME280;48480;50.252;18.848;2022-12-18T03:31:05;100331.16;;;-3.10;73.46
62436;BME280;48480;50.252;18.848;2022-12-18T03:33:55;100335.69;;;-3.07;73.31
62436;BME280;48480;50.252;18.848;2022-12-18T03:36:21;100340.67;;;-3.06;73.36
62436;BME280;48480;50.252;18.848;2022-12-18T03:38:47;100339.95;;;-3.05;73.37
62436;BME280;48480;50.252;18.848;2022-12-18T03:41:33;100345.38;;;-3.04;73.45
62436;BME280;48480;50.252;18.848;2022-12-18T03:44:15;100346.88;;;-3.03;73.66
62436;BME280;48480;50.252;18.848;2022-12-18T03:47:09;100348.19;;;-3.03;73.42
62436;BME280;48480;50.252;18.848;2022-12-18T03:52:49;100351.92;;;-3.02;73.30
62436;BME280;48480;50.252;18.848;2022-12-18T03:55:20;100352.05;;;-3.04;73.16
62436;BME280;48480;50.252;18.848;2022-12-18T03:57:47;100354.99;;;-3.04;73.39
62436;BME280;48480;50.252;18.848;2022-12-18T04:00:17;100356.19;;;-3.05;73.46
62436;BME280;48480;50.252;18.848;2022-12-18T04:02:48;100356.48;;;-3.05;73.37
62436;BME280;48480;50.252;18.848;2022-12-18T04:05:17;100357.86;;;-3.06;72.99
62436;BME280;48480;50.252;18.848;2022-12-18T04:07:43;100361.85;;;-3.07;73.05
62436;BME280;48480;50.252;18.848;2022-12-18T04:10:11;100366.20;;;-3.08;73.13
62436;BME280;48480;50.252;18.848;2022-12-18T04:12:37;100362.92;;;-3.12;73.39
62436;BME280;48480;50.252;18.848;2022-12-18T04:15:04;100370.50;;;-3.16;73.27
62436;BME280;48480;50.252;18.848;2022-12-18T04:17:29;100371.67;;;-3.18;73.44
62436;BME280;48480;50.252;18.848;2022-12-18T04:19:55;100374.80;;;-3.17;73.50
62436;BME280;48480;50.252;18.848;2022-12-18T04:22:20;100375.77;;;-3.17;73.38
62436;BME280;48480;50.252;18.848;2022-12-18T04:24:46;100372.55;;;-3.17;73.57
62436;BME280;48480;50.252;18.848;2022-12-18T04:27:11;100374.27;;;-3.15;73.51
62436;BME280;48480;50.252;18.848;2022-12-18T04:29:37;100380.38;;;-3.16;73.58
62436;BME280;48480;50.252;18.848;2022-12-18T04:32:03;100385.63;;;-3.15;73.72
62436;BME280;48480;50.252;18.848;2022-12-18T04:34:29;100384.68;;;-3.16;73.88
62436;BME280;48480;50.252;18.848;2022-12-18T04:36:54;100391.31;;;-3.17;73.59
62436;BME280;48480;50.252;18.848;2022-12-18T04:39:19;100391.70;;;-3.19;73.68
62436;BME280;48480;50.252;18.848;2022-12-18T04:41:45;100393.84;;;-3.13;73.51
62436;BME280;48480;50.252;18.848;2022-12-18T04:44:11;100395.83;;;-3.10;73.61
62436;BME280;48480;50.252;18.848;2022-12-18T04:46:36;100399.00;;;-3.09;73.43
62436;BME280;48480;50.252;18.848;2022-12-18T04:49:01;100398.17;;;-3.10;73.18
62436;BME280;48480;50.252;18.848;2022-12-18T04:51:27;100403.87;;;-3.07;73.46
62436;BME280;48480;50.252;18.848;2022-12-18T04:53:53;100404.48;;;-3.09;73.32
62436;BME280;48480;50.252;18.848;2022-12-18T04:56:19;100409.09;;;-3.12;73.46
62436;BME280;48480;50.252;18.848;2022-12-18T04:58:44;100417.21;;;-3.14;73.28
62436;BME280;48480;50.252;18.848;2022-12-18T05:01:12;100420.16;;;-3.17;73.18
62436;BME280;48480;50.252;18.848;2022-12-18T05:03:38;100419.73;;;-3.27;73.30
62436;BME280;48480;50.252;18.848;2022-12-18T05:06:05;100435.36;;;-3.23;73.33
62436;BME280;48480;50.252;18.848;2022-12-18T05:08:31;100435.14;;;-3.27;73.48
62436;BME280;48480;50.252;18.848;2022-12-18T05:11:04;100435.86;;;-3.27;73.72
62436;BME280;48480;50.252;18.848;2022-12-18T05:13:31;100435.09;;;-3.25;73.82
62436;BME280;48480;50.252;18.848;2022-12-18T05:15:57;100437.30;;;-3.26;73.75
62436;BME280;48480;50.252;18.848;2022-12-18T05:18:23;100437.13;;;-3.26;73.81
62436;BME280;48480;50.252;18.848;2022-12-18T05:20:53;100442.28;;;-3.27;73.69
62436;BME280;48480;50.252;18.848;2022-12-18T05:23:21;100442.23;;;-3.27;73.69
62436;BME280;48480;50.252;18.848;2022-12-18T05:25:58;100448.80;;;-3.28;73.80
62436;BME280;48480;50.252;18.848;2022-12-18T05:28:26;100448.10;;;-3.27;73.84
62436;BME280;48480;50.252;18.848;2022-12-18T05:30:53;100444.02;;;-3.26;73.87
62436;BME280;48480;50.252;18.848;2022-12-18T05:33:20;100444.41;;;-3.25;73.85
62436;BME280;48480;50.252;18.848;2022-12-18T05:35:54;100448.85;;;-3.23;73.71
62436;BME280;48480;50.252;18.848;2022-12-18T05:38:21;100452.75;;;-3.25;73.36
62436;BME280;48480;50.252;18.848;2022-12-18T05:40:48;100457.86;;;-3.27;73.34
62436;BME280;48480;50.252;18.848;2022-12-18T05:43:15;100456.29;;;-3.29;73.46
62436;BME280;48480;50.252;18.848;2022-12-18T05:45:41;100456.59;;;-3.31;73.56
62436;BME280;48480;50.252;18.848;2022-12-18T05:48:08;100462.20;;;-3.31;73.58
62436;BME280;48480;50.252;18.848;2022-12-18T05:50:35;100464.63;;;-3.35;73.48
62436;BME280;48480;50.252;18.848;2022-12-18T05:53:02;100465.54;;;-3.39;73.68
62436;BME280;48480;50.252;18.848;2022-12-18T05:55:28;100465.73;;;-3.39;73.58
62436;BME280;48480;50.252;18.848;2022-12-18T05:57:53;100463.21;;;-3.40;73.42
62436;BME280;48480;50.252;18.848;2022-12-18T06:00:19;100472.05;;;-3.40;73.61
62436;BME280;48480;50.252;18.848;2022-12-18T06:02:48;100473.73;;;-3.41;73.44
62436;BME280;48480;50.252;18.848;2022-12-18T06:05:13;100476.39;;;-3.43;73.96
62436;BME280;48480;50.252;18.848;2022-12-18T06:07:38;100478.52;;;-3.44;74.27
62436;BME280;48480;50.252;18.848;2022-12-18T06:10:04;100479.30;;;-3.46;74.14
62436;BME280;48480;50.252;18.848;2022-12-18T06:12:29;100481.94;;;-3.49;74.08
62436;BME280;48480;50.252;18.848;2022-12-18T06:14:55;100483.02;;;-3.54;73.94
62436;BME280;48480;50.252;18.848;2022-12-18T06:17:21;100480.46;;;-3.59;74.17
62436;BME280;48480;50.252;18.848;2022-12-18T06:19:46;100484.41;;;-3.62;74.38
62436;BME280;48480;50.252;18.848;2022-12-18T06:22:11;100483.79;;;-3.62;74.46
62436;BME280;48480;50.252;18.848;2022-12-18T06:24:37;100490.13;;;-3.61;74.69
62436;BME280;48480;50.252;18.848;2022-12-18T06:27:02;100493.33;;;-3.60;74.53
62436;BME280;48480;50.252;18.848;2022-12-18T06:29:28;100501.69;;;-3.57;74.61
62436;BME280;48480;50.252;18.848;2022-12-18T06:31:53;100502.77;;;-3.52;74.58
62436;BME280;48480;50.252;18.848;2022-12-18T06:34:18;100506.02;;;-3.50;74.36
62436;BME280;48480;50.252;18.848;2022-12-18T06:36:44;100506.98;;;-3.48;74.63
62436;BME280;48480;50.252;18.848;2022-12-18T06:39:09;100511.66;;;-3.44;74.59
62436;BME280;48480;50.252;18.848;2022-12-18T06:41:34;100515.09;;;-3.40;74.59
62436;BME280;48480;50.252;18.848;2022-12-18T06:44:00;100518.88;;;-3.36;74.50
62436;BME280;48480;50.252;18.848;2022-12-18T06:46:26;100526.47;;;-3.34;74.42
62436;BME280;48480;50.252;18.848;2022-12-18T06:48:51;100523.48;;;-3.36;74.16
62436;BME280;48480;50.252;18.848;2022-12-18T06:51:18;100525.92;;;-3.37;74.38
62436;BME280;48480;50.252;18.848;2022-12-18T06:53:44;100531.75;;;-3.36;74.53
62436;BME280;48480;50.252;18.848;2022-12-18T06:56:09;100534.06;;;-3.38;74.39
62436;BME280;48480;50.252;18.848;2022-12-18T06:58:35;100537.53;;;-3.42;74.21
62436;BME280;48480;50.252;18.848;2022-12-18T07:01:01;100540.52;;;-3.47;74.46
62436;BME280;48480;50.252;18.848;2022-12-18T07:03:27;100541.56;;;-3.49;74.36
62436;BME280;48480;50.252;18.848;2022-12-18T07:05:53;100543.80;;;-3.50;74.27
62436;BME280;48480;50.252;18.848;2022-12-18T07:08:18;100546.00;;;-3.49;74.37
62436;BME280;48480;50.252;18.848;2022-12-18T07:10:44;100533.87;;;-3.57;74.34
62436;BME280;48480;50.252;18.848;2022-12-18T07:13:09;100550.24;;;-3.53;74.10
62436;BME280;48480;50.252;18.848;2022-12-18T07:15:34;100558.29;;;-3.58;74.32
62436;BME280;48480;50.252;18.848;2022-12-18T07:18:00;100561.78;;;-3.58;74.49
62436;BME280;48480;50.252;18.848;2022-12-18T07:20:26;100562.69;;;-3.55;74.45
62436;BME280;48480;50.252;18.848;2022-12-18T07:22:51;100563.90;;;-3.50;74.40
62436;BME280;48480;50.252;18.848;2022-12-18T07:25:16;100567.50;;;-3.44;74.35
62436;BME280;48480;50.252;18.848;2022-12-18T07:27:42;100568.21;;;-3.39;74.22
62436;BME280;48480;50.252;18.848;2022-12-18T07:30:08;100569.83;;;-3.34;74.26
62436;BME280;48480;50.252;18.848;2022-12-18T07:32:34;100572.96;;;-3.26;74.02
62436;BME280;48480;50.252;18.848;2022-12-18T07:34:59;100574.95;;;-3.22;73.93
62436;BME280;48480;50.252;18.848;2022-12-18T07:37:25;100575.62;;;-3.19;73.85
62436;BME280;48480;50.252;18.848;2022-12-18T07:39:50;100577.42;;;-3.15;73.96
62436;BME280;48480;50.252;18.848;2022-12-18T07:42:15;100581.27;;;-3.10;73.88
62436;BME280;48480;50.252;18.848;2022-12-18T07:44:57;100579.00;;;-3.02;73.64
62436;BME280;48480;50.252;18.848;2022-12-18T07:47:23;100578.11;;;-2.94;73.33
62436;BME280;48480;50.252;18.848;2022-12-18T07:49:48;100575.14;;;-2.89;72.68
62436;BME280;48480;50.252;18.848;2022-12-18T07:52:14;100575.77;;;-2.86;72.73
62436;BME280;48480;50.252;18.848;2022-12-18T07:54:40;100582.06;;;-2.81;72.68
62436;BME280;48480;50.252;18.848;2022-12-18T07:57:06;100580.52;;;-2.77;72.15
62436;BME280;48480;50.252;18.848;2022-12-18T07:59:31;100580.58;;;-2.71;72.04
62436;BME280;48480;50.252;18.848;2022-12-18T08:01:56;100583.13;;;-2.67;71.82
62436;BME280;48480;50.252;18.848;2022-12-18T08:04:22;100582.02;;;-2.62;71.53
62436;BME280;48480;50.252;18.848;2022-12-18T08:06:47;100578.56;;;-2.61;71.03
62436;BME280;48480;50.252;18.848;2022-12-18T08:09:12;100578.45;;;-2.63;70.95
62436;BME280;48480;50.252;18.848;2022-12-18T08:11:38;100581.34;;;-2.65;70.59
62436;BME280;48480;50.252;18.848;2022-12-18T08:14:03;100582.00;;;-2.68;70.60
62436;BME280;48480;50.252;18.848;2022-12-18T08:16:29;100581.93;;;-2.67;70.33
62436;BME280;48480;50.252;18.848;2022-12-18T08:18:56;100587.23;;;-2.68;70.48
62436;BME280;48480;50.252;18.848;2022-12-18T08:21:24;100593.52;;;-2.68;70.39
62436;BME280;48480;50.252;18.848;2022-12-18T08:23:50;100599.89;;;-2.65;70.22
62436;BME280;48480;50.252;18.848;2022-12-18T08:26:16;100604.50;;;-2.64;70.11
62436;BME280;48480;50.252;18.848;2022-12-18T08:28:43;100601.31;;;-2.60;69.99
62436;BME280;48480;50.252;18.848;2022-12-18T08:31:09;100607.13;;;-2.55;69.85
62436;BME280;48480;50.252;18.848;2022-12-18T08:33:36;100605.58;;;-2.49;69.52
62436;BME280;48480;50.252;18.848;2022-12-18T08:36:04;100605.50;;;-2.41;69.54
62436;BME280;48480;50.252;18.848;2022-12-18T08:38:29;100609.69;;;-2.32;69.41
62436;BME280;48480;50.252;18.848;2022-12-18T08:41:04;100611.27;;;-2.18;69.11
62436;BME280;48480;50.252;18.848;2022-12-18T08:43:29;100621.23;;;-2.00;68.99
62436;BME280;48480;50.252;18.848;2022-12-18T08:46:13;100619.30;;;-1.82;68.74
62436;BME280;48480;50.252;18.848;2022-12-18T08:48:42;100619.98;;;-1.68;68.39
62436;BME280;48480;50.252;18.848;2022-12-18T08:51:07;100623.49;;;-1.56;68.17
62436;BME280;48480;50.252;18.848;2022-12-18T08:53:35;100628.38;;;-1.41;67.72
62436;BME280;48480;50.252;18.848;2022-12-18T08:56:01;100636.65;;;-1.28;67.63
62436;BME280;48480;50.252;18.848;2022-12-18T08:58:27;100639.30;;;-1.17;67.13
62436;BME280;48480;50.252;18.848;2022-12-18T09:00:53;100643.73;;;-1.08;66.65
62436;BME280;48480;50.252;18.848;2022-12-18T09:03:19;100642.38;;;-1.06;66.57
62436;BME280;48480;50.252;18.848;2022-12-18T09:05:48;100647.10;;;-1.01;66.33
62436;BME280;48480;50.252;18.848;2022-12-18T09:08:14;100646.36;;;-1.04;66.00
62436;BME280;48480;50.252;18.848;2022-12-18T09:10:48;100650.40;;;-1.05;66.15
62436;BME280;48480;50.252;18.848;2022-12-18T09:13:15;100653.19;;;-1.07;65.95
62436;BME280;48480;50.252;18.848;2022-12-18T09:15:42;100654.23;;;-1.07;65.82
62436;BME280;48480;50.252;18.848;2022-12-18T09:18:09;100656.04;;;-1.06;65.56
62436;BME280;48480;50.252;18.848;2022-12-18T09:20:36;100655.05;;;-1.00;65.35
62436;BME280;48480;50.252;18.848;2022-12-18T09:23:02;100655.52;;;-0.90;65.18
62436;BME280;48480;50.252;18.848;2022-12-18T09:25:29;100658.75;;;-0.77;64.90
62436;BME280;48480;50.252;18.848;2022-12-18T09:28:04;100656.38;;;-0.63;64.75
62436;BME280;48480;50.252;18.848;2022-12-18T09:30:30;100653.86;;;-0.46;64.33
62436;BME280;48480;50.252;18.848;2022-12-18T09:32:58;100654.67;;;-0.27;64.00
62436;BME280;48480;50.252;18.848;2022-12-18T09:35:24;100654.99;;;-0.08;63.92
62436;BME280;48480;50.252;18.848;2022-12-18T09:37:49;100654.11;;;0.09;63.42
62436;BME280;48480;50.252;18.848;2022-12-18T09:40:18;100651.14;;;0.23;63.09
62436;BME280;48480;50.252;18.848;2022-12-18T09:42:52;100650.73;;;0.40;62.94
62436;BME280;48480;50.252;18.848;2022-12-18T09:45:23;100655.68;;;0.50;62.51
62436;BME280;48480;50.252;18.848;2022-12-18T09:47:49;100654.88;;;0.49;62.70
62436;BME280;48480;50.252;18.848;2022-12-18T09:50:32;100658.77;;;0.55;62.03
62436;BME280;48480;50.252;18.848;2022-12-18T09:53:09;100659.95;;;0.64;62.02
62436;BME280;48480;50.252;18.848;2022-12-18T09:55:42;100658.70;;;0.74;61.46
62436;BME280;48480;50.252;18.848;2022-12-18T09:58:20;100653.51;;;0.85;61.33
62436;BME280;48480;50.252;18.848;2022-12-18T10:00:54;100653.02;;;1.00;60.58
62436;BME280;48480;50.252;18.848;2022-12-18T10:03:20;100654.88;;;1.07;59.95
62436;BME280;48480;50.252;18.848;2022-12-18T10:06:07;100652.02;;;1.07;59.97
62436;BME280;48480;50.252;18.848;2022-12-18T10:09:01;100646.00;;;1.13;59.81
62436;BME280;48480;50.252;18.848;2022-12-18T10:11:52;100651.88;;;1.29;59.55
62436;BME280;48480;50.252;18.848;2022-12-18T10:14:44;100647.02;;;1.35;59.44
62436;BME280;48480;50.252;18.848;2022-12-18T10:23:01;100644.20;;;1.50;59.68
62436;BME280;48480;50.252;18.848;2022-12-18T10:28:08;100631.87;;;1.70;58.86
62436;BME280;48480;50.252;18.848;2022-12-18T10:30:35;100626.61;;;1.75;58.69
62436;BME280;48480;50.252;18.848;2022-12-18T10:33:04;100632.32;;;1.72;58.11
62436;BME280;48480;50.252;18.848;2022-12-18T10:35:29;100629.30;;;1.60;57.92
62436;BME280;48480;50.252;18.848;2022-12-18T10:38:04;100629.29;;;1.45;58.02
62436;BME280;48480;50.252;18.848;2022-12-18T10:40:30;100623.90;;;1.29;58.03
62436;BME280;48480;50.252;18.848;2022-12-18T10:43:11;100625.90;;;1.11;58.12
62436;BME280;48480;50.252;18.848;2022-12-18T10:45:37;100618.04;;;0.92;58.60
62436;BME280;48480;50.252;18.848;2022-12-18T10:48:03;100612.81;;;0.77;58.49
62436;BME280;48480;50.252;18.848;2022-12-18T10:50:32;100612.95;;;0.61;58.85
62436;BME280;48480;50.252;18.848;2022-12-18T10:52:59;100618.71;;;0.42;58.97
62436;BME280;48480;50.252;18.848;2022-12-18T10:55:39;100623.80;;;0.26;59.03
62436;BME280;48480;50.252;18.848;2022-12-18T11:01:04;100618.27;;;0.02;59.30
62436;BME280;48480;50.252;18.848;2022-12-18T11:06:14;100599.80;;;-0.08;59.98
62436;BME280;48480;50.252;18.848;2022-12-18T11:08:42;100597.95;;;-0.09;60.76
62436;BME280;48480;50.252;18.848;2022-12-18T11:11:20;100595.61;;;-0.08;60.36
62436;BME280;48480;50.252;18.848;2022-12-18T11:14:22;100594.24;;;-0.11;60.24
62436;BME280;48480;50.252;18.848;2022-12-18T11:16:49;100591.27;;;-0.21;61.09
62436;BME280;48480;50.252;18.848;2022-12-18T11:21:52;100585.83;;;-0.30;60.53
62436;BME280;48480;50.252;18.848;2022-12-18T11:24:30;100587.16;;;-0.36;60.48
62436;BME280;48480;50.252;18.848;2022-12-18T11:27:03;100587.95;;;-0.49;60.43
62436;BME280;48480;50.252;18.848;2022-12-18T11:29:37;100598.85;;;-0.61;61.14
62436;BME280;48480;50.252;18.848;2022-12-18T11:34:51;100605.10;;;-0.61;61.76
62436;BME280;48480;50.252;18.848;2022-12-18T11:37:19;100605.76;;;-0.60;62.10
62436;BME280;48480;50.252;18.848;2022-12-18T11:40:07;100606.05;;;-0.62;61.88
62436;BME280;48480;50.252;18.848;2022-12-18T11:42:44;100607.86;;;-0.59;61.99
62436;BME280;48480;50.252;18.848;2022-12-18T11:47:58;100618.65;;;-0.41;62.79
62436;BME280;48480;50.252;18.848;2022-12-18T11:50:52;100614.91;;;-0.31;62.64
62436;BME280;48480;50.252;18.848;2022-12-18T11:53:19;100615.41;;;-0.30;62.02
62436;BME280;48480;50.252;18.848;2022-12-18T11:58:49;100621.35;;;-0.34;61.78
62436;BME280;48480;50.252;18.848;2022-12-18T12:03:57;100617.02;;;-0.46;60.75
62436;BME280;48480;50.252;18.848;2022-12-18T12:06:37;100624.05;;;-0.64;60.84
62436;BME280;48480;50.252;18.848;2022-12-18T12:12:30;100626.71;;;-0.73;61.63
62436;BME280;48480;50.252;18.848;2022-12-18T12:20:45;100632.70;;;-0.65;61.39
62436;BME280;48480;50.252;18.848;2022-12-18T12:25:53;100628.17;;;-0.55;61.52
62436;BME280;48480;50.252;18.848;2022-12-18T12:28:36;100632.00;;;-0.54;61.39
62436;BME280;48480;50.252;18.848;2022-12-18T12:34:02;100640.52;;;-0.54;61.54
62436;BME280;48480;50.252;18.848;2022-12-18T12:39:37;100640.58;;;-0.48;61.38
62436;BME280;48480;50.252;18.848;2022-12-18T12:42:12;100643.42;;;-0.47;61.85
62436;BME280;48480;50.252;18.848;2022-12-18T12:45:00;100638.73;;;-0.50;62.14
62436;BME280;48480;50.252;18.848;2022-12-18T12:47:38;100642.95;;;-0.50;62.13
62436;BME280;48480;50.252;18.848;2022-12-18T12:50:13;100644.70;;;-0.50;62.06
62436;BME280;48480;50.252;18.848;2022-12-18T12:52:43;100649.93;;;-0.51;62.24
62436;BME280;48480;50.252;18.848;2022-12-18T12:55:22;100651.14;;;-0.46;62.01
62436;BME280;48480;50.252;18.848;2022-12-18T13:04:03;100640.85;;;-0.35;61.52
62436;BME280;48480;50.252;18.848;2022-12-18T13:09:19;100647.20;;;-0.33;62.03
62436;BME280;48480;50.252;18.848;2022-12-18T13:11:46;100647.27;;;-0.29;61.76
62436;BME280;48480;50.252;18.848;2022-12-18T13:14:31;100650.97;;;-0.29;61.54
62436;BME280;48480;50.252;18.848;2022-12-18T13:19:42;100652.96;;;-0.27;61.90
62436;BME280;48480;50.252;18.848;2022-12-18T13:22:31;100659.77;;;-0.24;61.62
62436;BME280;48480;50.252;18.848;2022-12-18T13:24:59;100662.96;;;-0.21;61.31
62436;BME280;48480;50.252;18.848;2022-12-18T13:27:54;100665.15;;;-0.22;60.94
62436;BME280;48480;50.252;18.848;2022-12-18T13:33:30;100657.20;;;-0.21;60.62
62436;BME280;48480;50.252;18.848;2022-12-18T13:38:35;100670.85;;;-0.29;60.65
62436;BME280;48480;50.252;18.848;2022-12-18T13:41:10;100674.93;;;-0.35;60.55
62436;BME280;48480;50.252;18.848;2022-12-18T13:43:48;100671.27;;;-0.43;60.41
62436;BME280;48480;50.252;18.848;2022-12-18T13:46:21;100670.91;;;-0.50;59.98
62436;BME280;48480;50.252;18.848;2022-12-18T13:51:48;100661.23;;;-0.64;60.32
62436;BME280;48480;50.252;18.848;2022-12-18T13:54:28;100657.78;;;-0.76;60.62
62436;BME280;48480;50.252;18.848;2022-12-18T13:56:55;100666.33;;;-0.80;60.73
62436;BME280;48480;50.252;18.848;2022-12-18T14:01:50;100653.77;;;-0.94;60.62
62436;BME280;48480;50.252;18.848;2022-12-18T14:04:28;100643.95;;;-1.06;61.03
62436;BME280;48480;50.252;18.848;2022-12-18T14:07:02;100659.71;;;-1.10;60.98
62436;BME280;48480;50.252;18.848;2022-12-18T14:09:30;100660.52;;;-1.21;61.09
62436;BME280;48480;50.252;18.848;2022-12-18T14:11:57;100661.07;;;-1.31;61.21
62436;BME280;48480;50.252;18.848;2022-12-18T14:14:44;100662.23;;;-1.40;61.27
62436;BME280;48480;50.252;18.848;2022-12-18T14:17:13;100660.17;;;-1.50;61.43
62436;BME280;48480;50.252;18.848;2022-12-18T14:19:47;100664.13;;;-1.58;61.78
62436;BME280;48480;50.252;18.848;2022-12-18T14:22:23;100663.36;;;-1.66;61.98
62436;BME280;48480;50.252;18.848;2022-12-18T14:27:48;100666.59;;;-1.84;62.22